sensor_id;sensor_type;location;lat;lon;timestamp;pressure;altitude;pressure_sealevel;temperature;humidity
32324;BME280;25666;44.350;9.222;2023-01-25T00:00:44;102620.19;;;9.22;100.00
32324;BME280;25666;44.350;9.222;2023-01-25T00:03:10;102614.78;;;9.06;100.00
32324;BME280;25666;44.350;9.222;2023-01-25T00:05:35;102610.34;;;9.05;100.00
32324;BME280;25666;44.350;9.222;2023-01-25T00:08:01;102612.84;;;9.07;100.00
32324;BME280;25666;44.350;9.222;2023-01-25T00:10:26;102598.38;;;9.10;100.00
32324;BME280;25666;44.350;9.222;2023-01-25T00:12:52;102597.53;;;8.86;100.00
32324;BME280;25666;44.350;9.222;2023-01-25T00:15:17;102593.47;;;9.02;100.00
32324;BME280;25666;44.350;9.222;2023-01-25T00:17:43;102598.19;;;9.01;100.00
32324;BME280;25666;44.350;9.222;2023-01-25T00:20:09;102600.28;;;9.14;100.00
32324;BME280;25666;44.350;9.222;2023-01-25T00:22:34;102588.94;;;9.11;100.00
32324;BME280;25666;44.350;9.222;2023-01-25T00:25:00;102590.56;;;9.12;100.00
32324;BME280;25666;44.350;9.222;2023-01-25T00:27:26;102593.66;;;9.10;100.00
32324;BME280;25666;44.350;9.222;2023-01-25T00:29:52;102590.63;;;9.07;100.00
32324;BME280;25666;44.350;9.222;2023-01-25T00:34:48;102583.59;;;9.14;100.00
32324;BME280;25666;44.350;9.222;2023-01-25T00:37:21;102583.13;;;9.07;100.00
32324;BME280;25666;44.350;9.222;2023-01-25T00:39:48;102571.44;;;9.10;100.00
32324;BME280;25666;44.350;9.222;2023-01-25T00:42:17;102576.56;;;8.98;100.00
32324;BME280;25666;44.350;9.222;2023-01-25T00:44:45;102575.91;;;9.06;100.00
32324;BME280;25666;44.350;9.222;2023-01-25T00:47:13;102561.75;;;9.08;100.00
32324;BME280;25666;44.350;9.222;2023-01-25T00:49:40;102567.81;;;9.10;100.00
32324;BME280;25666;44.350;9.222;2023-01-25T00:52:08;102573.53;;;9.19;100.00
32324;BME280;25666;44.350;9.222;2023-01-25T00:54:34;102574.88;;;9.21;100.00
32324;BME280;25666;44.350;9.222;2023-01-25T00:57:00;102575.97;;;9.25;100.00
32324;BME280;25666;44.350;9.222;2023-01-25T00:59:25;102572.91;;;9.27;100.00
32324;BME280;25666;44.350;9.222;2023-01-25T01:01:53;102569.28;;;9.26;100.00
32324;BME280;25666;44.350;9.222;2023-01-25T01:04:19;102578.56;;;9.17;100.00
32324;BME280;25666;44.350;9.222;2023-01-25T01:06:45;102573.78;;;9.22;100.00
32324;BME280;25666;44.350;9.222;2023-01-25T01:09:15;102577.06;;;9.24;100.00
32324;BME280;25666;44.350;9.222;2023-01-25T01:11:42;102579.56;;;9.26;100.00
32324;BME280;25666;44.350;9.222;2023-01-25T01:14:08;102581.00;;;9.23;100.00
32324;BME280;25666;44.350;9.222;2023-01-25T01:16:33;102577.38;;;9.23;100.00
32324;BME280;25666;44.350;9.222;2023-01-25T01:18:59;102575.78;;;9.17;100.00
32324;BME280;25666;44.350;9.222;2023-01-25T01:21:24;102579.44;;;9.12;100.00
32324;BME280;25666;44.350;9.222;2023-01-25T01:23:50;102573.97;;;9.07;100.00
32324;BME280;25666;44.350;9.222;2023-01-25T01:26:17;102573.44;;;9.05;100.00
32324;BME280;25666;44.350;9.222;2023-01-25T01:28:43;102575.06;;;9.06;100.00
32324;BME280;25666;44.350;9.222;2023-01-25T01:31:12;102578.44;;;9.03;100.00
32324;BME280;25666;44.350;9.222;2023-01-25T01:33:42;102572.19;;;8.92;100.00
32324;BME280;25666;44.350;9.222;2023-01-25T01:36:12;102573.66;;;8.85;100.00
32324;BME280;25666;44.350;9.222;2023-01-25T01:38:39;102569.94;;;8.94;100.00
32324;BME280;25666;44.350;9.222;2023-01-25T01:41:04;102566.34;;;8.94;100.00
32324;BME280;25666;44.350;9.222;2023-01-25T01:43:30;102568.00;;;8.95;100.00
32324;BME280;25666;44.350;9.222;2023-01-25T01:48:36;102564.41;;;8.66;100.00
32324;BME280;25666;44.350;9.222;2023-01-25T01:53:42;102570.72;;;8.76;100.00
32324;BME280;25666;44.350;9.222;2023-01-25T01:56:12;102569.56;;;8.77;100.00
32324;BME280;25666;44.350;9.222;2023-01-25T01:58:41;102558.84;;;8.71;100.00
32324;BME280;25666;44.350;9.222;2023-01-25T02:01:08;102556.81;;;8.76;100.00
32324;BME280;25666;44.350;9.222;2023-01-25T02:03:34;102553.75;;;8.78;100.00
32324;BME280;25666;44.350;9.222;2023-01-25T02:06:13;102553.47;;;8.79;100.00
32324;BME280;25666;44.350;9.222;2023-01-25T02:08:40;102544.53;;;8.82;100.00
32324;BME280;25666;44.350;9.222;2023-01-25T02:11:08;102542.84;;;8.86;100.00
32324;BME280;25666;44.350;9.222;2023-01-25T02:13:34;102544.34;;;8.97;100.00
32324;BME280;25666;44.350;9.222;2023-01-25T02:16:02;102545.44;;;9.01;100.00
32324;BME280;25666;44.350;9.222;2023-01-25T02:18:28;102536.81;;;9.45;100.00
32324;BME280;25666;44.350;9.222;2023-01-25T02:20:56;102534.63;;;9.80;100.00
32324;BME280;25666;44.350;9.222;2023-01-25T02:26:21;102523.50;;;10.12;100.00
32324;BME280;25666;44.350;9.222;2023-01-25T02:29:03;102525.25;;;10.08;100.00
32324;BME280;25666;44.350;9.222;2023-01-25T02:31:30;102529.38;;;10.10;100.00
32324;BME280;25666;44.350;9.222;2023-01-25T02:33:58;102529.69;;;10.09;100.00
32324;BME280;25666;44.350;9.222;2023-01-25T02:36:26;102527.50;;;10.06;100.00
32324;BME280;25666;44.350;9.222;2023-01-25T02:39:09;102524.66;;;10.11;100.00
32324;BME280;25666;44.350;9.222;2023-01-25T02:41:40;102527.38;;;10.16;100.00
32324;BME280;25666;44.350;9.222;2023-01-25T02:44:16;102525.09;;;10.18;100.00
32324;BME280;25666;44.350;9.222;2023-01-25T02:46:43;102519.03;;;10.16;100.00
32324;BME280;25666;44.350;9.222;2023-01-25T02:49:13;102519.59;;;10.13;100.00
32324;BME280;25666;44.350;9.222;2023-01-25T02:51:42;102511.56;;;10.11;100.00
32324;BME280;25666;44.350;9.222;2023-01-25T02:54:10;102505.13;;;10.16;100.00
32324;BME280;25666;44.350;9.222;2023-01-25T02:56:36;102504.50;;;10.19;100.00
32324;BME280;25666;44.350;9.222;2023-01-25T02:59:02;102496.28;;;10.28;100.00
32324;BME280;25666;44.350;9.222;2023-01-25T03:01:33;102497.50;;;10.21;100.00
32324;BME280;25666;44.350;9.222;2023-01-25T03:03:59;102498.88;;;10.38;100.00
32324;BME280;25666;44.350;9.222;2023-01-25T03:06:25;102506.50;;;10.32;100.00
32324;BME280;25666;44.350;9.222;2023-01-25T03:08:50;102495.66;;;10.31;100.00
32324;BME280;25666;44.350;9.222;2023-01-25T03:11:16;102501.16;;;10.36;100.00
32324;BME280;25666;44.350;9.222;2023-01-25T03:13:42;102500.94;;;10.32;100.00
32324;BME280;25666;44.350;9.222;2023-01-25T03:16:11;102501.66;;;10.38;100.00
32324;BME280;25666;44.350;9.222;2023-01-25T03:18:39;102497.03;;;10.33;100.00
32324;BME280;25666;44.350;9.222;2023-01-25T03:23:33;102500.28;;;10.21;100.00
32324;BME280;25666;44.350;9.222;2023-01-25T03:26:18;102493.81;;;10.26;100.00
32324;BME280;25666;44.350;9.222;2023-01-25T03:29:07;102485.91;;;10.33;100.00
32324;BME280;25666;44.350;9.222;2023-01-25T03:31:36;102485.06;;;10.33;100.00
32324;BME280;25666;44.350;9.222;2023-01-25T03:34:02;102488.63;;;10.19;100.00
32324;BME280;25666;44.350;9.222;2023-01-25T03:36:32;102491.94;;;10.21;100.00
32324;BME280;25666;44.350;9.222;2023-01-25T03:38:58;102483.06;;;10.19;100.00
32324;BME280;25666;44.350;9.222;2023-01-25T03:41:24;102498.88;;;10.24;100.00
32324;BME280;25666;44.350;9.222;2023-01-25T03:43:49;102491.31;;;10.25;100.00
32324;BME280;25666;44.350;9.222;2023-01-25T03:46:16;102481.41;;;10.18;100.00
32324;BME280;25666;44.350;9.222;2023-01-25T03:48:41;102491.31;;;10.25;100.00
32324;BME280;25666;44.350;9.222;2023-01-25T03:51:07;102494.94;;;10.25;100.00
32324;BME280;25666;44.350;9.222;2023-01-25T03:53:33;102482.16;;;10.24;100.00
32324;BME280;25666;44.350;9.222;2023-01-25T03:56:09;102483.91;;;10.20;100.00
32324;BME280;25666;44.350;9.222;2023-01-25T03:58:37;102485.47;;;10.26;100.00
32324;BME280;25666;44.350;9.222;2023-01-25T04:01:04;102481.34;;;10.24;100.00
32324;BME280;25666;44.350;9.222;2023-01-25T04:03:30;102481.41;;;10.18;100.00
32324;BME280;25666;44.350;9.222;2023-01-25T04:05:57;102479.78;;;10.17;100.00
32324;BME280;25666;44.350;9.222;2023-01-25T04:08:23;102481.41;;;10.18;100.00
32324;BME280;25666;44.350;9.222;2023-01-25T04:11:00;102478.56;;;10.24;100.00
32324;BME280;25666;44.350;9.222;2023-01-25T04:13:26;102467.22;;;10.20;100.00
32324;BME280;25666;44.350;9.222;2023-01-25T04:15:51;102476.91;;;10.23;100.00
32324;BME280;25666;44.350;9.222;2023-01-25T04:18:37;102473.41;;;10.12;100.00
32324;BME280;25666;44.350;9.222;2023-01-25T04:21:04;102463.97;;;10.13;100.00
32324;BME280;25666;44.350;9.222;2023-01-25T04:23:30;102462.03;;;10.13;100.00
32324;BME280;25666;44.350;9.222;2023-01-25T04:26:00;102461.19;;;10.13;100.00
32324;BME280;25666;44.350;9.222;2023-01-25T04:28:26;102454.38;;;10.05;100.00
32324;BME280;25666;44.350;9.222;2023-01-25T04:30:54;102444.59;;;10.08;100.00
32324;BME280;25666;44.350;9.222;2023-01-25T04:33:22;102443.44;;;10.09;100.00
32324;BME280;25666;44.350;9.222;2023-01-25T04:35:48;102436.03;;;10.04;100.00
32324;BME280;25666;44.350;9.222;2023-01-25T04:38:14;102427.34;;;10.06;100.00
32324;BME280;25666;44.350;9.222;2023-01-25T04:40:42;102409.25;;;10.08;100.00
32324;BME280;25666;44.350;9.222;2023-01-25T04:43:09;102412.81;;;10.09;100.00
32324;BME280;25666;44.350;9.222;2023-01-25T04:45:35;102414.19;;;10.11;100.00
32324;BME280;25666;44.350;9.222;2023-01-25T04:48:06;102404.88;;;10.21;100.00
32324;BME280;25666;44.350;9.222;2023-01-25T04:50:36;102406.91;;;10.15;100.00
32324;BME280;25666;44.350;9.222;2023-01-25T04:53:03;102401.34;;;10.15;100.00
32324;BME280;25666;44.350;9.222;2023-01-25T04:55:30;102401.09;;;10.12;100.00
32324;BME280;25666;44.350;9.222;2023-01-25T04:57:56;102408.19;;;10.04;100.00
32324;BME280;25666;44.350;9.222;2023-01-25T05:00:22;102404.97;;;9.97;100.00
32324;BME280;25666;44.350;9.222;2023-01-25T05:02:48;102403.94;;;9.93;100.00
32324;BME280;25666;44.350;9.222;2023-01-25T05:05:13;102392.47;;;9.81;100.00
32324;BME280;25666;44.350;9.222;2023-01-25T05:07:39;102396.41;;;9.80;100.00
32324;BME280;25666;44.350;9.222;2023-01-25T05:10:05;102377.44;;;10.14;100.00
32324;BME280;25666;44.350;9.222;2023-01-25T05:12:32;102380.97;;;10.34;100.00
32324;BME280;25666;44.350;9.222;2023-01-25T05:15:01;102396.19;;;10.50;100.00
32324;BME280;25666;44.350;9.222;2023-01-25T05:17:26;102408.91;;;10.42;100.00
32324;BME280;25666;44.350;9.222;2023-01-25T05:19:52;102401.66;;;10.41;100.00
32324;BME280;25666;44.350;9.222;2023-01-25T05:22:20;102398.16;;;10.63;100.00
32324;BME280;25666;44.350;9.222;2023-01-25T05:24:49;102412.59;;;10.65;100.00
32324;BME280;25666;44.350;9.222;2023-01-25T05:27:18;102401.75;;;10.63;100.00
32324;BME280;25666;44.350;9.222;2023-01-25T05:29:53;102396.81;;;10.74;100.00
32324;BME280;25666;44.350;9.222;2023-01-25T05:32:24;102405.97;;;10.74;100.00
32324;BME280;25666;44.350;9.222;2023-01-25T05:34:49;102417.94;;;10.75;100.00
32324;BME280;25666;44.350;9.222;2023-01-25T05:37:17;102411.03;;;10.72;100.00
32324;BME280;25666;44.350;9.222;2023-01-25T05:39:45;102411.13;;;10.81;100.00
32324;BME280;25666;44.350;9.222;2023-01-25T05:42:13;102407.09;;;10.87;100.00
32324;BME280;25666;44.350;9.222;2023-01-25T05:44:39;102417.50;;;10.95;100.00
32324;BME280;25666;44.350;9.222;2023-01-25T05:47:06;102413.69;;;10.91;100.00
32324;BME280;25666;44.350;9.222;2023-01-25T05:49:32;102399.94;;;11.08;99.07
32324;BME280;25666;44.350;9.222;2023-01-25T05:51:58;102410.38;;;11.03;99.64
32324;BME280;25666;44.350;9.222;2023-01-25T05:54:30;102399.13;;;11.08;98.53
32324;BME280;25666;44.350;9.222;2023-01-25T05:57:01;102404.06;;;11.11;98.15
32324;BME280;25666;44.350;9.222;2023-01-25T05:59:27;102392.59;;;11.12;97.44
32324;BME280;25666;44.350;9.222;2023-01-25T06:01:53;102397.22;;;11.17;96.75
32324;BME280;25666;44.350;9.222;2023-01-25T06:04:19;102394.00;;;11.23;95.42
32324;BME280;25666;44.350;9.222;2023-01-25T06:06:45;102382.47;;;11.16;96.72
32324;BME280;25666;44.350;9.222;2023-01-25T06:09:11;102387.38;;;10.97;100.00
32324;BME280;25666;44.350;9.222;2023-01-25T06:11:37;102378.34;;;11.14;96.79
32324;BME280;25666;44.350;9.222;2023-01-25T06:14:03;102370.19;;;11.17;95.96
32324;BME280;25666;44.350;9.222;2023-01-25T06:16:29;102382.00;;;11.01;100.00
32324;BME280;25666;44.350;9.222;2023-01-25T06:19:00;102385.22;;;10.94;100.00
32324;BME280;25666;44.350;9.222;2023-01-25T06:21:44;102392.16;;;10.83;100.00
32324;BME280;25666;44.350;9.222;2023-01-25T06:24:09;102381.09;;;10.78;100.00
32324;BME280;25666;44.350;9.222;2023-01-25T06:26:35;102392.78;;;10.66;100.00
32324;BME280;25666;44.350;9.222;2023-01-25T06:29:00;102397.31;;;10.62;100.00
32324;BME280;25666;44.350;9.222;2023-01-25T06:31:26;102393.63;;;10.53;100.00
32324;BME280;25666;44.350;9.222;2023-01-25T06:33:51;102375.38;;;10.47;100.00
32324;BME280;25666;44.350;9.222;2023-01-25T06:36:20;102385.91;;;10.37;100.00
32324;BME280;25666;44.350;9.222;2023-01-25T06:38:50;102392.56;;;10.22;100.00
32324;BME280;25666;44.350;9.222;2023-01-25T06:41:16;102389.59;;;10.18;100.00
32324;BME280;25666;44.350;9.222;2023-01-25T06:43:41;102397.72;;;10.15;100.00
32324;BME280;25666;44.350;9.222;2023-01-25T06:46:09;102396.91;;;10.14;100.00
32324;BME280;25666;44.350;9.222;2023-01-25T06:48:36;102384.72;;;10.10;100.00
32324;BME280;25666;44.350;9.222;2023-01-25T06:51:04;102385.13;;;10.04;100.00
32324;BME280;25666;44.350;9.222;2023-01-25T06:53:32;102395.03;;;9.78;100.00
32324;BME280;25666;44.350;9.222;2023-01-25T06:56:05;102384.84;;;9.87;100.00
32324;BME280;25666;44.350;9.222;2023-01-25T06:58:31;102390.97;;;9.89;100.00
32324;BME280;25666;44.350;9.222;2023-01-25T07:01:11;102383.75;;;9.88;100.00
32324;BME280;25666;44.350;9.222;2023-01-25T07:03:37;102380.75;;;9.84;100.00
32324;BME280;25666;44.350;9.222;2023-01-25T07:06:04;102394.53;;;9.76;100.00
32324;BME280;25666;44.350;9.222;2023-01-25T07:08:31;102391.03;;;9.70;100.00
32324;BME280;25666;44.350;9.222;2023-01-25T07:11:00;102389.47;;;9.78;100.00
32324;BME280;25666;44.350;9.222;2023-01-25T07:13:27;102397.09;;;9.72;100.00
32324;BME280;25666;44.350;9.222;2023-01-25T07:16:02;102387.09;;;9.71;100.00
32324;BME280;25666;44.350;9.222;2023-01-25T07:18:29;102396.97;;;9.63;100.00
32324;BME280;25666;44.350;9.222;2023-01-25T07:21:10;102390.53;;;9.82;100.00
32324;BME280;25666;44.350;9.222;2023-01-25T07:23:36;102384.06;;;9.86;100.00
32324;BME280;25666;44.350;9.222;2023-01-25T07:26:04;102398.47;;;9.88;100.00
32324;BME280;25666;44.350;9.222;2023-01-25T07:28:31;102395.59;;;9.93;100.00
32324;BME280;25666;44.350;9.222;2023-01-25T07:31:04;102406.59;;;10.17;100.00
32324;BME280;25666;44.350;9.222;2023-01-25T07:33:30;102407.44;;;10.58;100.00
32324;BME280;25666;44.350;9.222;2023-01-25T07:36:15;102408.81;;;10.97;92.39
32324;BME280;25666;44.350;9.222;2023-01-25T07:38:40;102407.56;;;11.03;90.53
32324;BME280;25666;44.350;9.222;2023-01-25T07:41:06;102402.63;;;11.00;92.10
32324;BME280;25666;44.350;9.222;2023-01-25T07:43:31;102397.47;;;10.93;95.65
32324;BME280;25666;44.350;9.222;2023-01-25T07:46:11;102402.88;;;10.90;97.58
32324;BME280;25666;44.350;9.222;2023-01-25T07:48:38;102407.91;;;10.88;95.98
32324;BME280;25666;44.350;9.222;2023-01-25T07:51:06;102400.47;;;10.97;93.00
32324;BME280;25666;44.350;9.222;2023-01-25T07:54:01;102398.22;;;10.99;90.26
32324;BME280;25666;44.350;9.222;2023-01-25T07:56:35;102405.63;;;11.03;90.19
32324;BME280;25666;44.350;9.222;2023-01-25T07:59:05;102410.03;;;11.18;85.20
32324;BME280;25666;44.350;9.222;2023-01-25T08:01:33;102399.59;;;11.23;83.21
32324;BME280;25666;44.350;9.222;2023-01-25T08:03:59;102391.31;;;11.18;84.60
32324;BME280;25666;44.350;9.222;2023-01-25T08:06:27;102395.97;;;11.23;84.48
32324;BME280;25666;44.350;9.222;2023-01-25T08:08:56;102402.47;;;11.18;87.43
32324;BME280;25666;44.350;9.222;2023-01-25T08:11:25;102407.69;;;11.11;88.88
32324;BME280;25666;44.350;9.222;2023-01-25T08:13:51;102407.97;;;11.10;92.30
32324;BME280;25666;44.350;9.222;2023-01-25T08:16:18;102432.97;;;11.15;85.80
32324;BME280;25666;44.350;9.222;2023-01-25T08:18:48;102417.25;;;11.19;82.53
32324;BME280;25666;44.350;9.222;2023-01-25T08:21:14;102417.25;;;11.19;79.72
32324;BME280;25666;44.350;9.222;2023-01-25T08:23:39;102420.31;;;11.31;78.15
32324;BME280;25666;44.350;9.222;2023-01-25T08:26:07;102426.50;;;11.28;78.76
32324;BME280;25666;44.350;9.222;2023-01-25T08:28:33;102429.50;;;11.32;76.55
32324;BME280;25666;44.350;9.222;2023-01-25T08:31:24;102434.22;;;11.31;75.63
32324;BME280;25666;44.350;9.222;2023-01-25T08:33:51;102429.06;;;11.38;73.41
32324;BME280;25666;44.350;9.222;2023-01-25T08:36:18;102437.94;;;11.40;72.83
32324;BME280;25666;44.350;9.222;2023-01-25T08:38:47;102436.59;;;11.38;73.77
32324;BME280;25666;44.350;9.222;2023-01-25T08:41:17;102432.81;;;11.34;74.51
32324;BME280;25666;44.350;9.222;2023-01-25T08:43:44;102434.19;;;11.45;73.06
32324;BME280;25666;44.350;9.222;2023-01-25T08:46:12;102438.44;;;11.42;73.33
32324;BME280;25666;44.350;9.222;2023-01-25T08:48:38;102425.22;;;11.48;70.88
32324;BME280;25666;44.350;9.222;2023-01-25T08:51:06;102424.38;;;11.47;71.74
32324;BME280;25666;44.350;9.222;2023-01-25T08:53:32;102428.31;;;11.46;74.45
32324;BME280;25666;44.350;9.222;2023-01-25T08:56:03;102427.78;;;11.44;78.05
32324;BME280;25666;44.350;9.222;2023-01-25T08:58:28;102432.97;;;11.37;74.58
32324;BME280;25666;44.350;9.222;2023-01-25T09:01:00;102436.28;;;11.39;74.61
32324;BME280;25666;44.350;9.222;2023-01-25T09:03:27;102421.59;;;11.47;77.30
32324;BME280;25666;44.350;9.222;2023-01-25T09:05:53;102417.03;;;11.51;79.01
32324;BME280;25666;44.350;9.222;2023-01-25T09:08:18;102418.69;;;11.52;81.72
32324;BME280;25666;44.350;9.222;2023-01-25T09:10:43;102425.91;;;11.53;85.73
32324;BME280;25666;44.350;9.222;2023-01-25T09:13:09;102423.25;;;11.48;76.02
32324;BME280;25666;44.350;9.222;2023-01-25T09:15:34;102421.69;;;11.56;89.29
32324;BME280;25666;44.350;9.222;2023-01-25T09:18:00;102419.69;;;11.56;82.93
32324;BME280;25666;44.350;9.222;2023-01-25T09:20:25;102415.34;;;11.64;82.69
32324;BME280;25666;44.350;9.222;2023-01-25T09:22:51;102427.50;;;11.68;84.78
32324;BME280;25666;44.350;9.222;2023-01-25T09:25:16;102425.16;;;11.61;96.45
32324;BME280;25666;44.350;9.222;2023-01-25T09:27:42;102421.41;;;11.66;84.32
32324;BME280;25666;44.350;9.222;2023-01-25T09:30:09;102424.06;;;11.49;78.52
32324;BME280;25666;44.350;9.222;2023-01-25T09:32:36;102416.25;;;11.59;74.71
32324;BME280;25666;44.350;9.222;2023-01-25T09:35:03;102418.63;;;11.66;80.44
32324;BME280;25666;44.350;9.222;2023-01-25T09:37:28;102431.94;;;11.69;80.56
32324;BME280;25666;44.350;9.222;2023-01-25T09:39:54;102439.59;;;11.63;90.81
32324;BME280;25666;44.350;9.222;2023-01-25T09:45:11;102431.81;;;11.52;91.36
32324;BME280;25666;44.350;9.222;2023-01-25T09:50:31;102428.66;;;11.31;99.88
32324;BME280;25666;44.350;9.222;2023-01-25T09:55:27;102430.78;;;11.48;83.66
32324;BME280;25666;44.350;9.222;2023-01-25T09:57:55;102425.41;;;11.51;75.52
32324;BME280;25666;44.350;9.222;2023-01-25T10:00:31;102432.63;;;11.52;72.69
32324;BME280;25666;44.350;9.222;2023-01-25T10:03:25;102440.44;;;11.64;72.24
32324;BME280;25666;44.350;9.222;2023-01-25T10:05:55;102440.28;;;11.69;72.02
32324;BME280;25666;44.350;9.222;2023-01-25T10:08:44;102438.31;;;11.83;70.48
32324;BME280;25666;44.350;9.222;2023-01-25T10:11:23;102429.69;;;11.71;71.53
32324;BME280;25666;44.350;9.222;2023-01-25T10:13:50;102435.72;;;11.87;74.21
32324;BME280;25666;44.350;9.222;2023-01-25T10:16:28;102413.00;;;11.79;72.48
32324;BME280;25666;44.350;9.222;2023-01-25T10:21:30;102413.84;;;12.11;72.76
32324;BME280;25666;44.350;9.222;2023-01-25T10:26:37;102406.91;;;12.30;71.58
32324;BME280;25666;44.350;9.222;2023-01-25T10:29:12;102402.47;;;12.38;66.32
32324;BME280;25666;44.350;9.222;2023-01-25T10:31:49;102395.22;;;12.28;64.01
32324;BME280;25666;44.350;9.222;2023-01-25T10:36:53;102378.63;;;12.71;60.74
32324;BME280;25666;44.350;9.222;2023-01-25T10:39:20;102375.59;;;12.59;59.68
32324;BME280;25666;44.350;9.222;2023-01-25T10:41:50;102366.31;;;12.81;59.50
32324;BME280;25666;44.350;9.222;2023-01-25T10:44:17;102382.84;;;12.52;60.17
32324;BME280;25666;44.350;9.222;2023-01-25T10:50:04;102348.69;;;12.72;60.99
32324;BME280;25666;44.350;9.222;2023-01-25T10:52:31;102352.00;;;12.74;61.94
32324;BME280;25666;44.350;9.222;2023-01-25T10:57:42;102334.34;;;12.56;60.62
32324;BME280;25666;44.350;9.222;2023-01-25T11:02:52;102327.47;;;12.54;62.90
32324;BME280;25666;44.350;9.222;2023-01-25T11:07:47;102322.97;;;12.27;61.36
32324;BME280;25666;44.350;9.222;2023-01-25T11:10:39;102309.03;;;12.35;62.73
32324;BME280;25666;44.350;9.222;2023-01-25T11:15:40;102304.63;;;12.04;64.28
32324;BME280;25666;44.350;9.222;2023-01-25T11:18:21;102309.38;;;11.95;66.24
32324;BME280;25666;44.350;9.222;2023-01-25T11:20:47;102301.09;;;11.81;65.32
32324;BME280;25666;44.350;9.222;2023-01-25T11:23:26;102291.56;;;11.73;65.92
32324;BME280;25666;44.350;9.222;2023-01-25T11:25:52;102279.34;;;11.69;66.74
32324;BME280;25666;44.350;9.222;2023-01-25T11:28:20;102264.03;;;11.58;67.61
32324;BME280;25666;44.350;9.222;2023-01-25T11:30:48;102258.66;;;11.62;67.71
32324;BME280;25666;44.350;9.222;2023-01-25T11:33:17;102256.53;;;11.67;68.79
32324;BME280;25666;44.350;9.222;2023-01-25T11:36:08;102247.75;;;11.74;68.94
32324;BME280;25666;44.350;9.222;2023-01-25T11:38:36;102247.84;;;11.69;68.61
32324;BME280;25666;44.350;9.222;2023-01-25T11:41:10;102236.28;;;11.84;70.00
32324;BME280;25666;44.350;9.222;2023-01-25T11:43:58;102235.66;;;11.87;71.43
32324;BME280;25666;44.350;9.222;2023-01-25T11:52:00;102204.81;;;11.92;69.18
32324;BME280;25666;44.350;9.222;2023-01-25T11:54:41;102206.31;;;11.98;69.79
32324;BME280;25666;44.350;9.222;2023-01-25T12:28:08;102135.56;;;12.28;68.35
32324;BME280;25666;44.350;9.222;2023-01-25T12:33:58;102154.13;;;12.33;69.07
32324;BME280;25666;44.350;9.222;2023-01-25T12:36:36;102138.03;;;12.30;59.55
32324;BME280;25666;44.350;9.222;2023-01-25T12:39:26;102130.81;;;12.29;58.65
32324;BME280;25666;44.350;9.222;2023-01-25T12:42:14;102128.38;;;12.27;58.21
32324;BME280;25666;44.350;9.222;2023-01-25T12:47:17;102129.47;;;12.44;57.46
32324;BME280;25666;44.350;9.222;2023-01-25T12:52:52;102123.59;;;12.37;56.41
32324;BME280;25666;44.350;9.222;2023-01-25T12:55:18;102120.97;;;12.40;55.86
32324;BME280;25666;44.350;9.222;2023-01-25T13:03:09;102099.78;;;12.39;55.67
32324;BME280;25666;44.350;9.222;2023-01-25T13:05:47;102099.94;;;12.34;59.75
32324;BME280;25666;44.350;9.222;2023-01-25T13:11:11;102084.66;;;12.49;66.31
32324;BME280;25666;44.350;9.222;2023-01-25T13:13:37;102093.84;;;12.41;66.14
32324;BME280;25666;44.350;9.222;2023-01-25T13:18:48;102086.31;;;12.32;68.19
32324;BME280;25666;44.350;9.222;2023-01-25T13:25:06;102081.53;;;12.16;65.23
32324;BME280;25666;44.350;9.222;2023-01-25T13:27:25;102076.63;;;12.13;63.26
32324;BME280;25666;44.350;9.222;2023-01-25T13:39:42;102058.22;;;12.29;58.16
32324;BME280;25666;44.350;9.222;2023-01-25T13:44:36;102053.97;;;12.23;59.58
32324;BME280;25666;44.350;9.222;2023-01-25T13:47:06;102037.56;;;12.21;57.18
32324;BME280;25666;44.350;9.222;2023-01-25T13:52:17;102039.19;;;12.22;56.35
32324;BME280;25666;44.350;9.222;2023-01-25T13:54:45;102044.63;;;12.27;56.50
32324;BME280;25666;44.350;9.222;2023-01-25T13:57:14;102056.75;;;12.40;55.93
32324;BME280;25666;44.350;9.222;2023-01-25T13:59:40;102050.19;;;12.19;55.34
32324;BME280;25666;44.350;9.222;2023-01-25T14:02:23;102052.19;;;12.18;55.89
32324;BME280;25666;44.350;9.222;2023-01-25T14:04:50;102050.50;;;12.26;56.58
32324;BME280;25666;44.350;9.222;2023-01-25T14:07:18;102053.00;;;12.27;56.28
32324;BME280;25666;44.350;9.222;2023-01-25T14:09:46;102045.28;;;12.24;56.30
32324;BME280;25666;44.350;9.222;2023-01-25T14:12:34;102042.78;;;12.23;56.45
32324;BME280;25666;44.350;9.222;2023-01-25T14:15:21;102041.97;;;12.22;56.71
32324;BME280;25666;44.350;9.222;2023-01-25T14:20:28;102040.84;;;12.15;56.66
32324;BME280;25666;44.350;9.222;2023-01-25T14:22:53;102029.34;;;12.16;56.85
32324;BME280;25666;44.350;9.222;2023-01-25T14:25:20;102036.06;;;12.07;57.13
32324;BME280;25666;44.350;9.222;2023-01-25T14:27:55;102037.22;;;12.14;57.70
32324;BME280;25666;44.350;9.222;2023-01-25T14:30:32;102033.13;;;12.20;57.49
32324;BME280;25666;44.350;9.222;2023-01-25T14:33:02;102033.78;;;12.17;58.10
32324;BME280;25666;44.350;9.222;2023-01-25T14:35:41;102038.19;;;12.10;57.77
32324;BME280;25666;44.350;9.222;2023-01-25T14:38:25;102044.63;;;12.02;58.44
32324;BME280;25666;44.350;9.222;2023-01-25T14:40:54;102040.69;;;12.11;58.83
32324;BME280;25666;44.350;9.222;2023-01-25T14:43:21;102048.53;;;12.09;59.74
32324;BME280;25666;44.350;9.222;2023-01-25T14:45:47;102047.25;;;11.98;61.02
32324;BME280;25666;44.350;9.222;2023-01-25T14:48:40;102045.44;;;12.02;61.93
32324;BME280;25666;44.350;9.222;2023-01-25T14:51:24;102051.84;;;11.86;62.92
32324;BME280;25666;44.350;9.222;2023-01-25T14:54:00;102049.22;;;11.89;64.51
32324;BME280;25666;44.350;9.222;2023-01-25T14:56:31;102056.59;;;11.85;64.51
32324;BME280;25666;44.350;9.222;2023-01-25T14:58:57;102037.56;;;11.87;65.49